createdAt,value
2018-04-14T00:02:27.439Z,52.1
2018-04-14T00:12:26.584Z,52.1
2018-04-14T00:22:25.864Z,52
2018-04-14T00:32:25.012Z,52
2018-04-14T00:42:24.227Z,51.9
2018-04-14T00:52:23.498Z,51.8
2018-04-14T01:02:22.656Z,51.8
2018-04-14T01:12:21.917Z,51.7
2018-04-14T01:22:21.082Z,51.7
2018-04-14T01:32:20.350Z,51.6
2018-04-14T01:42:19.527Z,51.6
2018-04-14T01:52:18.733Z,51.5
2018-04-14T02:02:18.001Z,51.4
2018-04-14T02:12:17.149Z,51.4
2018-04-14T02:22:16.363Z,51.4
2018-04-14T02:32:15.592Z,51.3
2018-04-14T02:42:14.840Z,51.2
2018-04-14T02:52:14.029Z,51.1
2018-04-14T03:02:13.280Z,51
2018-04-14T03:12:12.433Z,50.9
2018-04-14T03:22:11.645Z,50.9
2018-04-14T03:32:10.868Z,50.9
2018-04-14T03:42:10.131Z,50.8
2018-04-14T03:52:09.292Z,50.8
2018-04-14T04:02:08.498Z,50.8
2018-04-14T04:12:07.708Z,50.7
2018-04-14T04:22:06.920Z,50.6
2018-04-14T04:32:06.131Z,50.5
2018-04-14T04:42:05.355Z,50.6
2018-04-14T04:52:04.564Z,50.6
2018-04-14T05:02:03.815Z,46.4
2018-04-14T05:12:02.978Z,45.9
2018-04-14T05:22:02.249Z,45.7
2018-04-14T05:32:01.412Z,43.7
2018-04-14T05:42:00.663Z,42.7
2018-04-14T05:51:59.827Z,42.6
2018-04-14T06:01:59.092Z,41.4
2018-04-14T06:11:58.257Z,41.7
2018-04-14T06:21:57.538Z,41.8
2018-04-14T06:31:56.697Z,41.8
2018-04-14T06:41:55.951Z,42.4
2018-04-14T06:51:55.125Z,43.3
2018-04-14T07:01:54.381Z,43.4
2018-04-14T07:11:53.549Z,43.9
2018-04-14T07:21:52.764Z,44.8
2018-04-14T07:31:51.979Z,45.9
2018-04-14T07:41:51.256Z,47.1
2018-04-14T07:51:50.411Z,44.3
2018-04-14T08:01:49.629Z,44
2018-04-14T08:11:48.907Z,43.8
2018-04-14T08:21:48.084Z,44.3
2018-04-14T08:31:47.292Z,44.8
2018-04-14T08:41:46.509Z,45.6
2018-04-14T08:51:45.715Z,46.4
2018-04-14T09:01:44.992Z,47.2
2018-04-14T09:11:44.160Z,47.6
2018-04-14T09:21:43.419Z,47.3
2018-04-14T09:31:42.591Z,47.6
2018-04-14T09:41:41.809Z,47.7
2018-04-14T09:51:41.025Z,48.1
2018-04-14T10:01:40.252Z,48.6
2018-04-14T10:11:39.466Z,49.1
2018-04-14T10:21:38.687Z,49.7
2018-04-14T10:31:37.954Z,50.4
2018-04-14T10:41:37.109Z,51.1
2018-04-14T10:51:36.339Z,51.8
2018-04-14T11:01:35.551Z,52.3
2018-04-14T11:11:34.766Z,52.8
2018-04-14T11:21:33.981Z,53.4
2018-04-14T11:31:33.203Z,54.1
2018-04-14T11:41:32.471Z,54.4
2018-04-14T11:51:31.638Z,51.2
2018-04-14T12:01:30.855Z,47.5
2018-04-14T12:11:30.068Z,47.8
2018-04-14T12:21:29.280Z,48.6
2018-04-14T12:31:28.552Z,49.9
2018-04-14T12:41:27.723Z,51.1
2018-04-14T12:51:26.930Z,52.1
2018-04-14T13:01:26.145Z,53.1
2018-04-14T13:11:25.411Z,53.7
2018-04-14T13:21:24.598Z,54.3
2018-04-14T13:31:23.853Z,54.6
2018-04-14T13:41:23.018Z,55
2018-04-14T13:51:22.233Z,55.2
2018-04-14T14:01:21.446Z,55.4
2018-04-14T14:11:20.654Z,55.5
2018-04-14T14:21:19.870Z,55.5
2018-04-14T14:31:19.134Z,55.4
2018-04-14T14:41:18.313Z,55.4
2018-04-14T14:51:17.570Z,55.5
2018-04-14T15:01:16.734Z,55.4
2018-04-14T15:11:15.950Z,55.4
2018-04-14T15:21:15.176Z,55.4
2018-04-14T15:31:14.390Z,55.3
2018-04-14T15:41:13.597Z,55.3
2018-04-14T15:51:12.864Z,55.3
2018-04-14T16:01:12.033Z,55.1
2018-04-14T16:11:11.298Z,55.1
2018-04-14T16:21:10.457Z,54.9
2018-04-14T16:31:09.686Z,54.9
2018-04-14T16:41:08.947Z,54.8
2018-04-14T16:51:08.117Z,54.7
2018-04-14T17:01:07.319Z,54.6
2018-04-14T17:11:06.533Z,54.4
2018-04-14T17:21:05.764Z,54.4
2018-04-14T17:31:05.024Z,54.3
2018-04-14T17:41:04.180Z,54.2
2018-04-14T17:51:03.397Z,53.8
2018-04-14T18:01:02.614Z,53.8
2018-04-14T18:11:01.888Z,53.1
2018-04-14T18:21:01.056Z,52.4
2018-04-14T18:31:00.268Z,51.7
2018-04-14T18:40:59.485Z,51.4
2018-04-14T18:50:58.699Z,51.1
2018-04-14T19:00:57.924Z,50.3
2018-04-14T19:10:57.141Z,50.1
2018-04-14T19:20:56.410Z,49.6
2018-04-14T19:30:55.569Z,44.8
2018-04-14T19:40:54.845Z,44.5
2018-04-14T19:50:54.014Z,43.9
2018-04-14T20:00:53.228Z,43.6
2018-04-14T20:10:52.441Z,43.1
2018-04-14T20:20:51.659Z,42.6
2018-04-14T20:30:50.931Z,42.6
2018-04-14T20:40:50.099Z,42.6
2018-04-14T20:50:49.373Z,42.4
2018-04-14T21:00:48.554Z,41.5
2018-04-14T21:10:47.753Z,41.6
2018-04-14T21:20:46.974Z,41.6
2018-04-14T21:30:46.185Z,41.6
2018-04-14T21:40:45.409Z,41.6
2018-04-14T21:50:44.680Z,41.6
2018-04-14T22:00:43.839Z,41.6
2018-04-14T22:10:43.057Z,41.6
2018-04-14T22:20:42.287Z,41.5
2018-04-14T22:30:41.493Z,41.5
2018-04-14T22:40:40.722Z,41.4
2018-04-14T22:50:39.928Z,41.4
2018-04-14T23:00:39.148Z,41.4
2018-04-14T23:10:38.361Z,41.4
2018-04-14T23:20:37.578Z,41.4
2018-04-14T23:30:36.803Z,41.3
2018-04-14T23:40:36.069Z,41.3
2018-04-14T23:50:35.236Z,41.3
